Ogden Hinckley Airport
KOGD : now visible

Airfield :











YOU CAN JOIN US ON...

 
LOGIN :

Register | Disclaimer

   EN    FR    IT 

 









Legend :    VFR   Marginal VFR   IFR   Intensive IFR   Very Intensive IFR
Visi :
Ceiling :
>= 8 km
>= 3000ft
5 to 8 km
1000 to 3000 ft
1500m to 5 km
500 to 1000 ft
800 to 1500m
200 to 500 ft
< 800m
< 200 ft
Symbols :   Thunderstorms  Fog  Heavy snow  Heavy precipitations  Wind > 20 kt






- Airport Elevation : 4473 ft


KOGD - Ogden Hinckley

CURRENT METAR :
  • 071853Z 00000KT 5SM BR OVC065 M01/M02 A3013 RMK AO2 SLP221 T10111022 $

EXPIRED METARs :
  • 071805Z 08003KT 4SM BR SCT002 OVC060 M02/M03 A3015 RMK AO2 T10171033 $
  • 071753Z 00000KT 3SM BR BKN002 OVC060 M02/M03 A3016 RMK AO2 SLP229 I6004 T10171033 11017 21050 51008 $
  • 071740Z 33003KT 1SM BR BKN002 OVC065 M03/M04 A3016 RMK AO2 T10281039 $
  • 071653Z 32004KT M1/4SM FZFG VV002 M03/M04 A3016 RMK AO2 SLP231 T10281044 $

TAF KOGD
Valid from the 07 at 18:00 until the 08 at 18:00 UTC


071740Z 0718/0818 16007KT 3SM BR SCT020 BKN040
FM080200 16005KT 1/4SM FG VV001
FM080900 18005KT 1SM -SHRA BR OVC007



MET'MAP, your aeronautical weather chart ! - Copyright ORBIFLY December 2007 - Disclaimer

ORBIFLY MET'MAP TEAM :

Programming & Development : Alexandra Zaïnal
Concept & original design : Baudouin d'Aumeries
Assistance for programming : Marc-Olivier Méhu
Technical & hardware support : Manuel Goepfert

Contact : metmap@orbifly.com




SOURCES & CREDITS :

   NOAA       Earth
Advisory